Time;durP1;ratioP1;P1;durP2;ratioP2;P2;SDS_P1;SDS_P2;PMS_P1;PMS_P2;Temp;Humidity;BMP_temperature;BMP_pressure;BME280_temperature;BME280_humidity;BME280_pressure;Samples;Min_cycle;Max_cycle;Signal;HPM_P1;HPM_P2
2022/07/21 05:50:37;;;;;;;4.68;3.47;;;;;;;34.25;29.35;100617.19;6617256;27;119041;-88
2022/07/21 05:53:40;;;;;;;9.90;3.92;;;;;;;33.30;30.66;100620.72;6590198;27;32621;-89
2022/07/21 06:00:25;;;;;;;11.80;3.78;;;;;;;33.40;29.21;100616.63;6607894;27;20179;-86
2022/07/21 06:03:28;;;;;;;10.25;3.80;;;;;;;33.79;29.21;100620.13;6606895;27;33919;-88
2022/07/21 06:06:31;;;;;;;6.20;3.40;;;;;;;34.90;27.93;100618.50;6587987;27;33124;-88
2022/07/21 06:09:34;;;;;;;26.25;4.62;;;;;;;36.87;25.13;100621.47;6590544;27;32676;-88
2022/07/21 06:12:36;;;;;;;7.65;3.33;;;;;;;38.45;23.16;100608.78;6607577;27;34295;-87
2022/07/21 06:15:39;;;;;;;5.28;3.50;;;;;;;38.93;22.57;100609.09;6607232;27;33772;-87
2022/07/21 06:18:42;;;;;;;9.38;3.47;;;;;;;38.37;23.25;100607.34;6607746;27;34465;-87
2022/07/21 06:21:44;;;;;;;8.85;3.45;;;;;;;37.38;24.65;100602.25;6606221;27;34049;-87
2022/07/21 06:24:48;;;;;;;10.07;4.00;;;;;;;36.33;25.83;100617.06;6587407;27;34019;-87
2022/07/21 06:27:51;;;;;;;5.57;3.60;;;;;;;38.12;23.52;100608.69;6594567;27;34707;-87
2022/07/21 06:30:54;;;;;;;4.90;3.80;;;;;;;38.22;22.15;100602.44;6608121;27;33672;-87
2022/07/21 06:33:58;;;;;;;4.65;3.80;;;;;;;40.56;19.59;100610.81;6607624;27;36209;-91
2022/07/21 06:37:00;;;;;;;7.62;3.83;;;;;;;40.24;20.35;100602.59;6611069;27;34446;-91
2022/07/21 06:40:04;;;;;;;16.02;4.28;;;;;;;39.91;21.11;100601.84;6623900;26;35198;-91
2022/07/21 06:43:07;;;;;;;10.73;4.15;;;;;;;39.01;22.46;100607.78;6618359;27;34141;-91
2022/07/21 06:46:28;;;;;;;6.32;3.90;;;;;;;37.56;23.99;100606.66;6607360;27;34041;-87
2022/07/21 06:49:31;;;;;;;14.25;4.68;;;;;;;35.72;25.38;100604.38;6606974;27;33756;-87
2022/07/21 06:52:35;;;;;;;9.55;4.30;;;;;;;35.00;27.24;100606.94;6606266;27;33979;-87
2022/07/21 06:55:37;;;;;;;8.65;4.57;;;;;;;34.16;26.80;100607.53;6609001;27;35414;-87
2022/07/21 06:58:40;;;;;;;6.37;4.28;;;;;;;33.49;29.12;100607.06;6607011;27;32703;-87
2022/07/21 07:01:51;;;;;;;11.20;4.85;;;;;;;33.29;28.10;100599.78;6606700;27;33973;-88
2022/07/21 07:04:54;;;;;;;8.57;4.55;;;;;;;34.10;28.24;100601.91;6567739;27;33613;-87
2022/07/21 07:07:57;;;;;;;7.28;4.12;;;;;;;34.54;27.24;100604.53;6607633;27;33926;-86
2022/07/21 07:11:00;;;;;;;7.10;5.10;;;;;;;34.78;26.54;100596.44;6605774;27;34543;-86
2022/07/21 07:14:03;;;;;;;8.90;4.50;;;;;;;35.07;26.66;100604.94;6606890;27;34324;-86
2022/07/21 07:17:20;;;;;;;7.55;5.25;;;;;;;35.16;25.36;100604.59;6586162;27;36048;-86
2022/07/21 07:20:27;;;;;;;9.70;4.47;;;;;;;35.63;25.00;100598.34;6586681;27;32739;-86
2022/07/21 07:23:30;;;;;;;9.95;5.62;;;;;;;35.38;24.24;100598.56;6606235;27;34720;-87
2022/07/21 07:26:32;;;;;;;8.07;4.95;;;;;;;35.36;25.73;100604.31;6610243;27;33946;-87
2022/07/21 07:29:35;;;;;;;9.63;4.53;;;;;;;35.74;24.65;100602.19;6610320;27;34161;-87
2022/07/21 07:32:39;;;;;;;5.00;4.47;;;;;;;35.43;23.91;100606.94;6607778;27;34132;-87
2022/07/21 07:35:43;;;;;;;11.65;4.30;;;;;;;34.67;25.42;100602.72;6587177;27;32410;-87
2022/07/21 07:38:47;;;;;;;15.20;4.90;;;;;;;34.68;26.82;100596.13;6606718;27;34835;-86
2022/07/21 07:41:51;;;;;;;8.00;4.75;;;;;;;34.54;25.75;100592.69;6605983;27;34021;-86
2022/07/21 07:44:53;;;;;;;5.30;4.35;;;;;;;34.57;25.39;100592.25;6606304;27;33770;-86
2022/07/21 07:47:56;;;;;;;5.93;4.22;;;;;;;34.83;25.09;100595.72;6607091;27;33586;-86
2022/07/21 07:50:58;;;;;;;8.18;4.35;;;;;;;35.14;25.63;100591.06;6585555;27;32722;-87
2022/07/21 07:54:03;;;;;;;6.25;4.30;;;;;;;34.87;25.60;100588.69;6605294;27;34257;-86
2022/07/21 07:57:06;;;;;;;9.38;4.87;;;;;;;35.23;24.44;100590.75;6606495;27;34908;-87
2022/07/21 08:00:12;;;;;;;12.02;4.82;;;;;;;35.87;23.67;100592.84;6604029;26;33955;-87
2022/07/21 08:03:35;;;;;;;14.90;5.25;;;;;;;35.72;24.15;100582.28;6602963;26;35064;-88
2022/07/21 08:06:42;;;;;;;7.12;4.45;;;;;;;35.03;25.27;100589.06;6605261;26;35408;-88
2022/07/21 08:17:46;;;;;;;4.80;4.35;;;;;;;36.58;22.24;100578.09;6616100;27;20072;-87
2022/07/21 08:20:49;;;;;;;9.23;5.00;;;;;;;36.29;23.00;100591.84;6613187;26;33476;-87
2022/07/21 08:23:52;;;;;;;6.07;4.60;;;;;;;36.30;23.03;100581.66;6619297;26;34340;-87
2022/07/21 08:26:55;;;;;;;12.63;4.30;;;;;;;36.86;22.89;100587.50;6618315;26;35032;-88
2022/07/21 08:33:35;;;;;;;6.37;4.50;;;;;;;37.88;21.88;100575.66;6602974;26;20290;-90
2022/07/21 08:36:39;;;;;;;9.88;5.20;;;;;;;38.14;21.44;100576.03;6607439;27;35202;-90
2022/07/21 08:43:17;;;;;;;8.95;4.50;;;;;;;38.68;21.58;100565.31;6585844;27;34386;-87
2022/07/21 08:46:22;;;;;;;7.65;4.35;;;;;;;39.13;20.68;100567.97;6571233;27;34365;-87
2022/07/21 08:53:04;;;;;;;4.67;4.27;;;;;;;39.70;20.11;100566.47;6604364;26;20068;-87
2022/07/21 08:59:45;;;;;;;4.77;4.33;;;;;;;40.37;19.21;100556.84;6610062;26;20067;-87
2022/07/21 09:03:15;;;;;;;7.68;4.18;;;;;;;40.92;18.01;100562.00;6613629;26;34061;-87
2022/07/21 09:06:19;;;;;;;7.05;3.92;;;;;;;40.77;18.21;100548.87;6618040;26;34151;-87
2022/07/21 09:09:22;;;;;;;5.15;3.47;;;;;;;40.89;17.70;100554.19;6615621;26;34814;-87
2022/07/21 09:12:26;;;;;;;5.37;3.80;;;;;;;40.88;16.42;100549.75;6609680;26;35216;-89
2022/07/21 09:15:31;;;;;;;4.40;4.00;;;;;;;40.57;17.33;100550.53;6602063;27;33540;-91
2022/07/21 09:18:45;;;;;;;7.95;4.37;;;;;;;39.49;18.36;100543.31;6600830;27;33459;-89
2022/07/21 09:21:50;;;;;;;4.65;4.00;;;;;;;39.71;18.56;100534.84;6608521;27;33979;-89
2022/07/21 09:24:53;;;;;;;6.72;3.90;;;;;;;40.07;18.34;100544.50;6620893;26;34753;-88
2022/07/21 09:28:11;;;;;;;5.12;4.20;;;;;;;40.29;17.55;100530.41;6615000;26;34550;-87
2022/07/21 09:31:13;;;;;;;5.62;4.22;;;;;;;39.85;18.59;100534.34;6605616;26;33820;-87
2022/07/21 09:34:17;;;;;;;7.55;4.15;;;;;;;40.02;18.19;100528.66;6588363;27;33779;-87
2022/07/21 09:41:36;;;;;;;5.78;3.78;;;;;;;41.17;17.61;100524.97;6605262;26;20049;-88
2022/07/21 09:44:43;;;;;;;5.50;4.00;;;;;;;41.21;16.99;100511.34;6606812;26;34400;-88
2022/07/21 09:51:34;;;;;;;6.05;3.87;;;;;;;41.68;16.33;100494.56;6614217;26;20071;-88
2022/07/21 10:02:01;;;;;;;10.35;4.40;;;;;;;43.96;14.90;100487.25;6610949;27;20076;-88
2022/07/21 10:05:06;;;;;;;15.85;4.22;;;;;;;42.00;16.06;100474.69;6609778;26;34081;-86
2022/07/21 10:08:13;;;;;;;9.82;3.95;;;;;;;41.54;16.78;100481.28;6608268;27;34336;-87
2022/07/21 10:11:16;;;;;;;6.72;4.12;;;;;;;40.50;16.86;100477.66;6589476;27;32913;-87
2022/07/21 10:14:21;;;;;;;5.82;3.90;;;;;;;41.52;17.07;100475.13;6610552;26;34193;-88
2022/07/21 10:17:25;;;;;;;9.45;4.10;;;;;;;40.46;17.32;100474.59;6614126;27;33822;-88
2022/07/21 10:20:37;;;;;;;6.90;3.90;;;;;;;41.15;17.02;100482.72;6623477;27;35319;-87
2022/07/21 10:23:42;;;;;;;6.40;4.03;;;;;;;41.68;16.61;100466.75;6599586;27;33309;-87
2022/07/21 10:27:04;;;;;;;10.57;3.90;;;;;;;42.15;16.26;100473.81;6606419;27;34301;-87
2022/07/21 10:30:08;;;;;;;10.95;3.70;;;;;;;40.59;17.51;100464.06;6609388;27;33742;-90
2022/07/21 10:33:15;;;;;;;10.25;4.30;;;;;;;42.40;15.47;100458.03;6608418;27;34284;-90
2022/07/21 10:36:27;;;;;;;5.05;3.78;;;;;;;44.89;13.64;100465.44;6607720;27;34676;-87
2022/07/21 10:39:33;;;;;;;5.57;3.90;;;;;;;46.53;12.18;100467.13;6605758;27;33735;-87
2022/07/21 10:42:36;;;;;;;9.30;3.95;;;;;;;46.48;11.95;100467.25;6605459;27;33831;-88
2022/07/21 10:45:40;;;;;;;8.18;3.75;;;;;;;45.47;12.90;100449.28;6606279;27;33858;-86
2022/07/21 10:48:47;;;;;;;6.25;4.62;;;;;;;45.32;13.77;100456.00;6609159;27;34687;-85
2022/07/21 10:51:49;;;;;;;9.00;3.72;;;;;;;43.84;14.04;100451.38;6586591;27;32420;-86
2022/07/21 10:55:17;;;;;;;6.97;3.50;;;;;;;43.00;14.63;100456.22;6586914;27;32691;-86
2022/07/21 10:58:22;;;;;;;4.68;3.60;;;;;;;40.96;15.94;100444.34;6587448;27;32666;-85
2022/07/21 11:01:25;;;;;;;5.78;3.60;;;;;;;41.41;15.91;100446.50;6606359;27;35244;-86
2022/07/21 11:04:28;;;;;;;8.40;3.83;;;;;;;41.66;15.54;100428.03;6611699;27;34539;-86
2022/07/21 11:08:08;;;;;;;8.23;3.90;;;;;;;42.11;15.54;100418.91;6598665;27;32940;-85
2022/07/21 11:11:11;;;;;;;5.28;3.60;;;;;;;42.21;15.32;100430.03;6607840;27;35229;-86
2022/07/21 11:14:20;;;;;;;7.30;3.55;;;;;;;41.99;14.86;100424.84;6586688;27;32786;-86
2022/07/21 11:17:31;;;;;;;7.53;3.90;;;;;;;43.10;14.59;100421.78;6587664;27;33188;-86
2022/07/21 11:20:35;;;;;;;4.15;3.65;;;;;;;43.05;14.96;100416.25;6586811;27;32951;-87
2022/07/21 11:23:39;;;;;;;6.62;3.50;;;;;;;41.92;15.33;100410.41;6585855;27;34185;-87
2022/07/21 11:26:42;;;;;;;4.05;3.30;;;;;;;41.84;15.65;100409.91;6587695;27;33989;-86
2022/07/21 11:29:48;;;;;;;5.32;3.67;;;;;;;41.37;16.13;100406.47;6606966;27;34451;-87
2022/07/21 11:32:52;;;;;;;5.87;3.80;;;;;;;41.82;15.64;100400.16;6606578;27;33952;-86
2022/07/21 11:35:54;;;;;;;6.72;3.75;;;;;;;40.93;16.28;100392.06;6606987;27;34122;-90
2022/07/21 11:39:04;;;;;;;5.62;3.25;;;;;;;41.20;16.85;100395.63;6605786;27;34176;-90
2022/07/21 11:42:12;;;;;;;5.65;3.35;;;;;;;41.05;15.77;100391.78;6595522;26;32599;-87
2022/07/21 11:45:17;;;;;;;5.57;3.50;;;;;;;40.76;15.72;100397.91;6623347;26;34171;-87
2022/07/21 11:48:38;;;;;;;4.93;3.75;;;;;;;39.56;17.37;100394.06;6622437;27;35259;-87
2022/07/21 11:51:48;;;;;;;7.07;3.50;;;;;;;40.31;16.85;100388.44;6605020;27;33291;-87
2022/07/21 11:54:53;;;;;;;5.10;3.30;;;;;;;40.51;16.17;100380.13;6603662;26;33900;-87
2022/07/21 11:57:56;;;;;;;5.95;3.50;;;;;;;40.83;16.38;100381.81;6607552;27;34290;-87
2022/07/21 12:01:07;;;;;;;7.20;3.55;;;;;;;41.29;15.73;100371.72;6585682;27;33956;-88
2022/07/21 12:04:12;;;;;;;7.28;3.37;;;;;;;41.20;15.94;100368.66;6605543;27;33918;-87
2022/07/21 12:07:23;;;;;;;6.22;3.35;;;;;;;40.33;15.52;100362.06;6606175;27;33895;-88
2022/07/21 12:10:29;;;;;;;8.40;3.28;;;;;;;40.64;16.10;100372.34;6607209;27;34149;-87
2022/07/21 12:13:51;;;;;;;7.37;3.28;;;;;;;40.62;16.10;100369.84;6607065;26;33897;-87
2022/07/21 12:16:55;;;;;;;10.02;3.60;;;;;;;40.06;16.19;100359.53;6606576;27;34577;-87
2022/07/21 12:19:58;;;;;;;7.72;3.72;;;;;;;39.95;16.40;100362.28;6587507;27;32702;-87
2022/07/21 12:23:16;;;;;;;6.78;3.40;;;;;;;39.70;16.83;100351.91;6589348;27;33451;-87
2022/07/21 12:26:22;;;;;;;4.77;3.30;;;;;;;39.60;17.14;100361.03;6608873;27;33774;-88
2022/07/21 12:29:29;;;;;;;6.15;3.45;;;;;;;39.16;17.10;100363.06;6591736;27;32648;-88
2022/07/21 12:32:49;;;;;;;4.65;3.60;;;;;;;38.73;18.08;100351.12;6607366;27;34079;-88
2022/07/21 12:36:02;;;;;;;4.75;3.40;;;;;;;38.89;17.43;100352.06;6585941;27;33814;-89
2022/07/21 12:42:47;;;;;;;6.72;3.33;;;;;;;38.91;18.55;100350.69;6607348;27;34377;-88
2022/07/21 12:45:59;;;;;;;7.10;3.17;;;;;;;39.18;17.39;100343.38;6609162;27;34221;-87
2022/07/21 12:49:04;;;;;;;7.95;3.40;;;;;;;38.41;17.10;100337.00;6611048;27;33760;-88
2022/07/21 12:52:14;;;;;;;5.82;3.15;;;;;;;38.18;17.85;100331.81;6611257;27;34088;-88
2022/07/21 12:55:17;;;;;;;6.35;3.00;;;;;;;38.40;16.97;100326.19;6606466;27;34779;-87
2022/07/21 12:58:19;;;;;;;5.12;3.00;;;;;;;38.12;17.49;100326.25;6606546;27;33851;-87
2022/07/21 13:01:24;;;;;;;3.87;2.95;;;;;;;38.49;17.70;100316.28;6585673;27;34285;-87
2022/07/21 13:04:26;;;;;;;7.35;3.30;;;;;;;38.52;18.21;100312.16;6596535;27;34156;-87
2022/07/21 13:07:29;;;;;;;9.02;3.70;;;;;;;38.28;17.69;100315.28;6586846;27;34824;-88
2022/07/21 13:10:32;;;;;;;7.05;3.50;;;;;;;38.33;18.52;100314.50;6577759;27;32827;-88
2022/07/21 13:13:36;;;;;;;5.45;3.50;;;;;;;38.28;17.58;100312.53;6581267;27;34668;-88
2022/07/21 13:16:38;;;;;;;6.55;3.50;;;;;;;38.45;17.67;100308.78;6560358;27;33034;-89
2022/07/21 13:19:41;;;;;;;9.82;3.55;;;;;;;38.48;17.61;100308.25;6577704;27;33603;-89
2022/07/21 13:22:44;;;;;;;8.77;3.12;;;;;;;38.26;17.28;100307.25;6583806;27;35062;-87
2022/07/21 13:25:48;;;;;;;6.28;3.05;;;;;;;38.24;17.48;100303.06;6582221;27;33785;-88
2022/07/21 13:29:07;;;;;;;5.17;3.30;;;;;;;38.00;18.85;100300.66;6560922;27;33100;-88
2022/07/21 13:32:10;;;;;;;6.55;3.85;;;;;;;37.11;18.91;100303.47;6581577;27;34337;-87
2022/07/21 13:35:14;;;;;;;3.95;3.37;;;;;;;37.59;19.02;100298.28;6582155;27;34667;-88
2022/07/21 13:38:28;;;;;;;7.12;3.50;;;;;;;38.11;18.27;100293.28;6580199;27;34009;-93
2022/07/21 13:41:32;;;;;;;5.07;3.40;;;;;;;38.20;18.09;100296.41;6580439;27;33679;-94
2022/07/21 13:44:55;;;;;;;3.92;3.10;;;;;;;37.85;17.81;100299.38;6581598;27;34387;-90
2022/07/21 13:47:58;;;;;;;4.18;3.15;;;;;;;37.77;17.82;100293.47;6582031;27;34289;-89
2022/07/21 13:51:03;;;;;;;8.07;3.60;;;;;;;38.05;17.78;100292.34;6586592;27;34426;-89
2022/07/21 13:54:05;;;;;;;13.95;3.72;;;;;;;37.84;17.84;100291.34;6595979;27;35094;-89
2022/07/21 13:57:08;;;;;;;4.18;3.50;;;;;;;37.40;17.88;100283.94;6589621;27;34228;-89
2022/07/21 14:00:11;;;;;;;5.55;3.25;;;;;;;37.73;17.62;100284.87;6578595;27;33011;-89
2022/07/21 14:03:14;;;;;;;3.97;3.30;;;;;;;37.85;17.75;100273.66;6606030;27;33961;-89
2022/07/21 14:06:17;;;;;;;4.50;3.30;;;;;;;37.99;17.42;100271.25;6586537;27;34032;-88
2022/07/21 14:09:20;;;;;;;10.18;3.45;;;;;;;38.16;17.74;100273.97;6587225;27;34123;-89
2022/07/21 14:12:23;;;;;;;10.88;3.55;;;;;;;38.07;17.21;100270.84;6606995;27;34431;-89
2022/07/21 14:15:26;;;;;;;6.25;3.47;;;;;;;38.14;16.91;100268.69;6607575;27;33959;-87
2022/07/21 14:18:29;;;;;;;3.55;3.17;;;;;;;38.35;16.96;100263.28;6615673;27;34265;-87
2022/07/21 14:21:32;;;;;;;7.22;3.25;;;;;;;38.36;16.64;100258.59;6617059;27;33902;-87
2022/07/21 14:27:57;;;;;;;7.37;3.30;;;;;;;37.73;17.17;100265.50;6586521;27;34225;-87
2022/07/21 14:31:00;;;;;;;6.25;3.50;;;;;;;37.75;17.05;100261.37;6605887;27;34110;-87
2022/07/21 14:34:06;;;;;;;7.55;3.42;;;;;;;37.90;16.84;100257.06;6586474;27;33309;-87
2022/07/21 14:37:08;;;;;;;8.52;3.50;;;;;;;38.01;16.67;100261.59;6586568;27;32797;-88
2022/07/21 14:40:12;;;;;;;5.82;3.40;;;;;;;38.10;16.54;100250.91;6589092;27;33194;-88
2022/07/21 14:43:18;;;;;;;6.30;3.30;;;;;;;37.54;16.65;100249.22;6588442;27;34199;-88
2022/07/21 14:46:21;;;;;;;4.95;3.42;;;;;;;37.57;16.89;100248.72;6613055;27;33686;-88
2022/07/21 14:49:24;;;;;;;10.82;3.80;;;;;;;37.68;16.90;100246.91;6586645;27;34703;-88
2022/07/21 14:52:27;;;;;;;5.80;3.30;;;;;;;37.61;17.66;100241.59;6587266;27;32480;-88
2022/07/21 14:55:30;;;;;;;6.47;3.67;;;;;;;37.62;16.41;100240.47;6607480;27;34270;-88
2022/07/21 14:58:33;;;;;;;6.03;3.22;;;;;;;37.61;16.53;100238.00;6586329;26;32630;-88
2022/07/21 15:01:35;;;;;;;4.43;3.12;;;;;;;37.78;16.53;100234.25;6590252;27;32433;-88
2022/07/21 15:04:39;;;;;;;9.23;3.58;;;;;;;37.61;16.96;100235.25;6606246;27;33558;-87
2022/07/21 15:07:41;;;;;;;4.10;3.30;;;;;;;37.78;16.99;100237.88;6606354;27;34658;-86
2022/07/21 15:10:46;;;;;;;4.32;3.30;;;;;;;37.45;17.15;100231.44;6609575;27;33934;-87
2022/07/21 15:13:49;;;;;;;6.78;3.37;;;;;;;37.35;17.77;100232.19;6605809;27;34958;-87
2022/07/21 15:16:52;;;;;;;10.50;3.55;;;;;;;37.54;17.98;100226.28;6606115;27;34091;-87
2022/07/21 15:19:58;;;;;;;4.40;3.30;;;;;;;37.45;17.74;100221.19;6587308;27;32997;-87
2022/07/21 15:23:01;;;;;;;9.52;3.78;;;;;;;37.33;17.86;100226.91;6586835;27;34180;-87
2022/07/21 15:26:06;;;;;;;7.05;3.05;;;;;;;37.43;17.05;100220.63;6611122;27;34313;-90
